Towanda, Illinois
Current Conditions -  °F | °C
As of 1:56 PM on Monday 24 Nov 2014 (Local Time) from KBMI Reporting Station
Overcast Overcast  
Wind Chill: 19°   Ceiling: 1700
Heat Index: 31°   Visibility: 10mi
Dew Point: 27°   Wind: 21mph
Humidity: 85%   Direction: 250°WSW
Pressure: 29.6"   Gusts: 32mph
Location:  40.56°N, 88.9°W
Report Text: KBMI 241956Z 25018G28KT 10SM OVC017 M01/M03 A2960 RMK AO2 T10051027 UPE05 P0000 PK WND 24031/1902 SLP032
Loading
Personal Weather Stations






























Interactive Weather Map New forecast layout! Learn more

10-Day Weather Forecast

Advertisements
Track Severe Weather on mobile